Time;durP1;ratioP1;P1;durP2;ratioP2;P2;SDS_P1;SDS_P2;PMS_P1;PMS_P2;Temp;Humidity;BMP_temperature;BMP_pressure;BME280_temperature;BME280_humidity;BME280_pressure;Samples;Min_cycle;Max_cycle;Signal;HPM_P1;HPM_P2
2022/08/15 00:00:19;;;;;;;3.25;2.88;;;21.30;99.90;;;;;;5050326;28;20185;-84
2022/08/15 00:02:47;;;;;;;2.83;2.63;;;21.30;99.90;;;;;;5061441;28;20083;-87
2022/08/15 00:05:18;;;;;;;3.55;3.25;;;21.30;99.90;;;;;;5055564;28;20461;-84
2022/08/15 00:07:44;;;;;;;3.38;3.08;;;21.30;99.90;;;;;;5045964;28;20021;-86
2022/08/15 00:10:11;;;;;;;3.65;3.35;;;21.20;99.90;;;;;;5056897;28;20039;-86
2022/08/15 00:12:38;;;;;;;3.42;2.55;;;21.20;99.90;;;;;;5065439;28;20036;-83
2022/08/15 00:15:08;;;;;;;3.58;3.28;;;21.20;99.90;;;;;;5045631;28;20496;-85
2022/08/15 00:17:35;;;;;;;3.42;2.80;;;21.20;99.90;;;;;;5065782;28;20465;-82
2022/08/15 00:20:02;;;;;;;3.33;3.03;;;21.10;99.90;;;;;;5043529;28;20039;-88
2022/08/15 00:22:28;;;;;;;3.75;3.42;;;21.10;99.90;;;;;;5065405;28;20059;-85
2022/08/15 00:24:54;;;;;;;4.22;3.70;;;21.10;99.90;;;;;;5050449;28;20052;-87
2022/08/15 00:27:24;;;;;;;4.00;3.60;;;21.00;99.90;;;;;;5068000;28;20051;-87
2022/08/15 00:29:51;;;;;;;3.78;3.40;;;21.00;99.90;;;;;;5058954;28;20070;-82
2022/08/15 00:32:19;;;;;;;2.90;2.67;;;21.00;99.90;;;;;;5043209;28;20036;-87
2022/08/15 00:34:46;;;;;;;3.58;3.28;;;21.00;99.90;;;;;;5071155;28;20032;-84
2022/08/15 00:37:12;;;;;;;3.17;2.70;;;21.00;99.90;;;;;;5060646;28;20025;-87
2022/08/15 00:39:39;;;;;;;3.97;2.67;;;21.00;99.90;;;;;;5042340;28;20119;-84
2022/08/15 00:42:08;;;;;;;3.28;2.92;;;21.00;99.90;;;;;;5060372;28;20056;-86
2022/08/15 00:44:40;;;;;;;3.40;3.10;;;21.00;99.90;;;;;;5060418;28;20036;-87
2022/08/15 00:47:10;;;;;;;3.55;3.25;;;21.00;99.90;;;;;;5042982;28;20032;-83
2022/08/15 00:49:38;;;;;;;3.35;3.05;;;21.10;99.90;;;;;;5067985;28;20078;-87
2022/08/15 00:52:06;;;;;;;3.75;3.28;;;21.00;99.90;;;;;;5065479;28;20141;-83
2022/08/15 00:54:52;;;;;;;3.72;3.42;;;21.10;99.90;;;;;;5054217;28;20033;-85
2022/08/15 00:57:24;;;;;;;4.50;4.10;;;21.00;99.90;;;;;;5065750;28;20036;-87
2022/08/15 00:59:55;;;;;;;3.33;3.00;;;21.00;99.90;;;;;;5061957;28;20120;-87
2022/08/15 01:02:24;;;;;;;3.65;3.38;;;21.00;99.90;;;;;;5046809;28;20051;-85
2022/08/15 01:04:50;;;;;;;3.75;3.40;;;21.00;99.90;;;;;;5057771;28;20060;-85
2022/08/15 01:07:19;;;;;;;3.35;3.05;;;20.90;99.90;;;;;;5065761;28;20650;-85
2022/08/15 01:09:45;;;;;;;4.13;3.72;;;21.00;99.90;;;;;;5059560;28;20111;-83
2022/08/15 01:12:15;;;;;;;3.58;3.28;;;20.90;99.90;;;;;;5042361;28;20144;-84
2022/08/15 01:14:53;;;;;;;5.38;3.53;;;20.80;99.90;;;;;;5046573;28;20033;-85
2022/08/15 01:17:19;;;;;;;4.50;3.60;;;20.70;99.90;;;;;;5058578;28;20021;-83
2022/08/15 01:19:50;;;;;;;3.65;3.35;;;20.60;99.90;;;;;;5061251;28;20061;-82
2022/08/15 01:22:56;;;;;;;4.53;3.65;;;20.60;99.90;;;;;;5059105;28;20064;-87
2022/08/15 01:25:42;;;;;;;3.15;2.72;;;20.60;99.90;;;;;;5045111;28;20021;-87
2022/08/15 01:28:13;;;;;;;3.58;3.03;;;20.60;99.90;;;;;;5063688;28;20041;-88
2022/08/15 01:30:47;;;;;;;3.42;3.13;;;20.60;99.90;;;;;;5056753;28;20052;-81
2022/08/15 01:33:13;;;;;;;3.92;3.63;;;20.60;99.90;;;;;;5044087;28;20025;-89
2022/08/15 01:35:40;;;;;;;3.65;3.35;;;20.50;99.90;;;;;;5058474;28;20452;-83
2022/08/15 01:38:27;;;;;;;3.38;3.08;;;20.40;99.90;;;;;;5059769;28;20025;-87
2022/08/15 01:40:52;;;;;;;3.50;3.15;;;20.40;99.90;;;;;;5037835;28;20045;-86
2022/08/15 01:43:24;;;;;;;3.30;3.00;;;20.30;99.90;;;;;;5048061;28;20046;-86
2022/08/15 01:45:54;;;;;;;3.72;3.42;;;20.40;99.90;;;;;;5047125;28;20024;-86
2022/08/15 01:48:26;;;;;;;4.93;4.43;;;20.30;99.90;;;;;;5061013;28;20039;-88
2022/08/15 01:51:02;;;;;;;4.45;4.03;;;20.20;99.90;;;;;;5069546;28;20048;-83
2022/08/15 01:53:40;;;;;;;4.10;3.70;;;20.20;99.90;;;;;;5060363;28;20016;-84
2022/08/15 01:56:30;;;;;;;4.30;3.92;;;20.20;99.90;;;;;;5044087;28;20116;-88
2022/08/15 01:58:57;;;;;;;4.88;4.40;;;20.20;99.90;;;;;;5060222;28;20029;-81
2022/08/15 02:01:42;;;;;;;4.82;4.43;;;20.10;99.90;;;;;;5048537;28;20029;-80
2022/08/15 02:04:08;;;;;;;4.32;3.97;;;20.00;99.90;;;;;;5060224;28;20049;-84
2022/08/15 02:06:35;;;;;;;4.47;4.03;;;20.00;99.90;;;;;;5057372;28;20025;-87
2022/08/15 02:09:05;;;;;;;4.38;4.07;;;19.90;99.90;;;;;;5047076;28;20063;-83
2022/08/15 02:11:30;;;;;;;4.45;3.85;;;19.90;99.90;;;;;;5057201;28;20098;-86
2022/08/15 02:13:56;;;;;;;4.28;3.97;;;19.80;99.90;;;;;;5055907;28;20484;-86
2022/08/15 02:16:35;;;;;;;5.05;4.53;;;19.90;99.90;;;;;;5047341;28;20078;-83
2022/08/15 02:19:07;;;;;;;5.10;4.22;;;19.80;99.90;;;;;;5060003;28;20040;-86
2022/08/15 02:21:34;;;;;;;4.68;4.28;;;19.70;99.90;;;;;;5061636;28;20038;-84
2022/08/15 02:24:01;;;;;;;4.10;3.80;;;19.70;99.90;;;;;;5056133;28;20087;-83
2022/08/15 02:26:28;;;;;;;4.60;4.10;;;19.70;99.90;;;;;;5047433;28;20029;-85
2022/08/15 02:28:54;;;;;;;4.45;4.05;;;19.70;99.90;;;;;;5044126;28;20033;-85
2022/08/15 02:31:24;;;;;;;5.18;4.63;;;19.60;99.90;;;;;;5061331;28;20028;-86
2022/08/15 02:33:58;;;;;;;4.45;4.05;;;19.70;99.90;;;;;;5068683;28;20078;-86
2022/08/15 02:36:26;;;;;;;5.10;4.70;;;19.80;99.90;;;;;;5048733;28;20067;-87
2022/08/15 02:38:53;;;;;;;4.85;4.30;;;19.80;99.90;;;;;;5046394;28;20472;-86
2022/08/15 02:41:29;;;;;;;3.67;3.38;;;19.80;99.90;;;;;;5055781;28;20052;-83
2022/08/15 02:43:55;;;;;;;4.93;4.53;;;19.80;99.90;;;;;;5048822;28;20512;-84
2022/08/15 02:46:22;;;;;;;6.20;5.57;;;19.80;99.90;;;;;;5063683;28;20036;-88
2022/08/15 02:48:53;;;;;;;5.07;4.68;;;19.90;99.90;;;;;;5058430;28;20032;-87
2022/08/15 02:51:21;;;;;;;4.63;4.22;;;20.00;99.90;;;;;;5046392;28;20032;-88
2022/08/15 02:53:50;;;;;;;4.55;4.15;;;19.90;99.90;;;;;;5058486;28;20021;-83
2022/08/15 02:56:18;;;;;;;5.57;4.78;;;19.90;99.90;;;;;;5067935;28;20036;-81
2022/08/15 02:58:44;;;;;;;5.03;4.63;;;19.90;99.90;;;;;;5070312;28;20027;-86
2022/08/15 03:01:11;;;;;;;5.55;4.85;;;19.90;99.90;;;;;;5049461;28;20021;-83
2022/08/15 03:03:39;;;;;;;5.28;4.80;;;19.90;99.90;;;;;;5044461;28;20036;-82
2022/08/15 03:06:08;;;;;;;5.90;5.30;;;19.80;99.90;;;;;;5048629;28;20363;-87
2022/08/15 03:08:37;;;;;;;5.93;4.10;;;19.70;99.90;;;;;;5067049;28;20021;-87
2022/08/15 03:11:05;;;;;;;5.32;4.75;;;19.70;99.90;;;;;;5062689;28;20453;-84
2022/08/15 03:13:33;;;;;;;6.35;5.75;;;19.70;99.90;;;;;;5052334;28;20495;-80
2022/08/15 03:16:00;;;;;;;4.85;4.45;;;19.70;99.90;;;;;;5044333;28;20021;-88
2022/08/15 03:18:33;;;;;;;5.30;4.80;;;19.80;99.90;;;;;;5071231;28;20029;-80
2022/08/15 03:21:08;;;;;;;6.57;5.32;;;19.70;99.90;;;;;;5058533;28;20035;-85
2022/08/15 03:23:34;;;;;;;7.95;5.43;;;19.80;99.90;;;;;;5044287;28;20036;-84
2022/08/15 03:26:02;;;;;;;5.43;4.93;;;19.60;99.90;;;;;;5044529;28;20373;-88
2022/08/15 03:28:31;;;;;;;5.90;5.28;;;19.50;99.90;;;;;;5047015;28;20120;-83
2022/08/15 03:31:05;;;;;;;7.15;6.40;;;19.50;99.90;;;;;;5062342;28;20021;-87
2022/08/15 03:33:33;;;;;;;6.00;5.47;;;19.40;99.90;;;;;;5045247;28;20116;-87
2022/08/15 03:36:00;;;;;;;5.18;4.65;;;19.40;99.90;;;;;;5049209;28;20021;-86
2022/08/15 03:38:26;;;;;;;5.80;5.20;;;19.30;99.90;;;;;;5046094;28;20577;-83
2022/08/15 03:40:53;;;;;;;6.03;5.43;;;19.30;99.90;;;;;;5050620;28;20048;-86
2022/08/15 03:43:26;;;;;;;6.15;5.55;;;19.20;99.90;;;;;;5052158;28;20047;-85
2022/08/15 03:45:58;;;;;;;6.38;5.78;;;19.10;99.90;;;;;;5068031;28;20389;-88
2022/08/15 03:48:41;;;;;;;6.95;6.18;;;19.10;99.90;;;;;;5060623;28;20059;-80
2022/08/15 03:51:10;;;;;;;6.07;5.22;;;19.00;99.90;;;;;;5065929;28;20037;-88
2022/08/15 03:53:43;;;;;;;6.75;6.05;;;19.00;99.90;;;;;;5050051;28;20090;-85
2022/08/15 03:56:09;;;;;;;5.68;5.18;;;18.90;99.90;;;;;;5048868;28;20036;-80
2022/08/15 03:58:37;;;;;;;5.63;5.07;;;18.90;99.90;;;;;;5044619;28;20370;-86
2022/08/15 04:01:11;;;;;;;6.63;6.03;;;18.90;99.90;;;;;;5062174;28;20016;-80
2022/08/15 04:03:37;;;;;;;5.78;5.22;;;18.80;99.90;;;;;;5044987;28;20032;-81
2022/08/15 04:06:06;;;;;;;6.80;6.10;;;18.80;99.90;;;;;;5062039;28;20103;-80
2022/08/15 04:08:33;;;;;;;6.22;5.63;;;18.80;99.90;;;;;;5065547;28;20024;-87
2022/08/15 04:11:01;;;;;;;6.25;5.75;;;18.80;99.90;;;;;;5063090;28;20040;-81
2022/08/15 04:13:28;;;;;;;6.70;6.00;;;18.70;99.90;;;;;;5059170;28;20432;-87
2022/08/15 04:15:57;;;;;;;7.38;5.95;;;18.80;99.90;;;;;;5058092;28;20107;-83
2022/08/15 04:18:24;;;;;;;7.00;6.40;;;18.70;99.90;;;;;;5064918;28;22079;-85
2022/08/15 04:20:53;;;;;;;6.70;6.10;;;18.80;99.90;;;;;;5044555;28;20393;-88
2022/08/15 04:23:19;;;;;;;6.65;5.97;;;18.80;99.90;;;;;;5061601;28;20037;-88
2022/08/15 04:25:45;;;;;;;7.07;6.38;;;18.70;99.90;;;;;;5043364;28;20321;-82
2022/08/15 04:28:17;;;;;;;7.07;6.38;;;18.80;99.90;;;;;;5056849;28;20095;-85
2022/08/15 04:30:46;;;;;;;6.57;6.07;;;18.80;99.90;;;;;;5076200;28;20021;-89
2022/08/15 04:33:21;;;;;;;6.35;5.75;;;18.80;99.90;;;;;;5065963;28;20033;-80
2022/08/15 04:35:59;;;;;;;7.07;6.35;;;18.90;99.90;;;;;;5061876;28;20024;-86
2022/08/15 04:38:25;;;;;;;7.03;6.32;;;18.80;99.90;;;;;;5064844;28;20509;-80
2022/08/15 04:40:54;;;;;;;6.55;5.65;;;18.90;99.90;;;;;;5049725;28;20067;-81
2022/08/15 04:43:21;;;;;;;7.85;5.78;;;18.80;99.90;;;;;;5047306;28;20133;-82
2022/08/15 04:45:51;;;;;;;6.70;5.97;;;18.90;99.90;;;;;;5040730;28;20017;-83
2022/08/15 04:48:17;;;;;;;7.80;6.53;;;18.90;99.90;;;;;;5062292;28;20066;-85
2022/08/15 04:50:46;;;;;;;6.40;5.90;;;18.90;99.90;;;;;;5060222;28;20074;-86
2022/08/15 04:53:14;;;;;;;6.75;6.15;;;18.90;99.90;;;;;;5067722;28;20036;-86
2022/08/15 04:55:43;;;;;;;7.38;6.63;;;18.90;99.90;;;;;;5043824;28;20044;-88
2022/08/15 04:58:12;;;;;;;6.63;6.05;;;18.90;99.90;;;;;;5047770;28;20033;-85
2022/08/15 05:00:40;;;;;;;6.75;6.10;;;19.00;99.90;;;;;;5044098;28;20078;-84
2022/08/15 05:03:19;;;;;;;7.55;6.45;;;19.00;99.90;;;;;;5050213;28;20045;-83
2022/08/15 05:05:52;;;;;;;6.65;6.05;;;19.00;99.90;;;;;;5044597;28;20473;-83
2022/08/15 05:08:20;;;;;;;8.20;7.07;;;19.10;99.90;;;;;;5042044;28;20483;-86
2022/08/15 05:10:54;;;;;;;9.13;7.35;;;19.20;99.90;;;;;;5048214;28;20112;-88
2022/08/15 05:13:23;;;;;;;8.60;7.35;;;19.20;99.90;;;;;;5042663;28;20123;-79
2022/08/15 05:15:50;;;;;;;8.70;6.85;;;19.30;99.90;;;;;;5050756;28;20025;-80
2022/08/15 05:18:17;;;;;;;12.15;7.63;;;19.40;99.90;;;;;;5047273;28;20037;-80
2022/08/15 05:20:43;;;;;;;7.38;6.75;;;19.40;99.90;;;;;;5044351;28;20029;-84
2022/08/15 05:23:12;;;;;;;7.10;6.40;;;19.50;99.90;;;;;;5059876;28;20415;-81
2022/08/15 05:25:50;;;;;;;8.13;6.95;;;19.50;99.90;;;;;;5048738;28;20057;-87
2022/08/15 05:28:18;;;;;;;7.43;6.75;;;19.60;99.90;;;;;;5040861;28;20198;-79
2022/08/15 05:30:44;;;;;;;6.72;6.10;;;19.60;99.90;;;;;;5059029;28;20040;-87
2022/08/15 05:33:16;;;;;;;8.40;6.03;;;19.70;99.90;;;;;;5053774;28;20061;-80
2022/08/15 05:35:49;;;;;;;7.63;6.93;;;19.70;99.90;;;;;;5056951;28;20029;-86
2022/08/15 05:38:21;;;;;;;7.47;6.75;;;19.70;99.90;;;;;;5055098;28;20477;-82
2022/08/15 05:41:19;;;;;;;6.47;5.88;;;19.70;99.90;;;;;;5057203;28;20049;-82
2022/08/15 05:44:07;;;;;;;8.10;6.78;;;19.70;99.90;;;;;;5054158;28;20375;-87
2022/08/15 05:47:20;;;;;;;9.68;6.57;;;19.80;99.90;;;;;;5062284;28;20446;-86
2022/08/15 05:50:06;;;;;;;8.23;6.47;;;19.90;99.90;;;;;;5046206;28;20045;-86
2022/08/15 05:53:09;;;;;;;5.50;4.95;;;19.90;99.90;;;;;;5071870;28;20024;-88
2022/08/15 05:55:50;;;;;;;8.82;8.00;;;19.90;99.90;;;;;;5042718;28;20021;-86
2022/08/15 05:58:35;;;;;;;8.95;6.25;;;20.00;99.90;;;;;;5043897;28;20052;-83
2022/08/15 06:01:18;;;;;;;5.90;5.40;;;20.20;99.90;;;;;;5064475;28;20096;-83
2022/08/15 06:03:52;;;;;;;5.45;4.68;;;20.30;99.90;;;;;;5037254;28;20032;-82
2022/08/15 06:06:21;;;;;;;4.50;3.00;;;20.40;99.90;;;;;;5041418;28;20393;-81
2022/08/15 06:08:55;;;;;;;4.28;3.30;;;20.50;99.90;;;;;;5055157;28;20036;-84
2022/08/15 06:11:33;;;;;;;3.60;3.25;;;20.80;99.90;;;;;;5063830;28;20067;-83
2022/08/15 06:14:33;;;;;;;2.72;2.50;;;21.00;99.90;;;;;;5042639;28;20063;-85
2022/08/15 06:17:34;;;;;;;3.20;2.78;;;21.20;99.90;;;;;;5043637;28;20116;-87
2022/08/15 06:20:04;;;;;;;3.10;1.75;;;21.50;99.90;;;;;;5006588;28;20039;-88
2022/08/15 06:22:48;;;;;;;2.38;1.45;;;21.40;99.90;;;;;;5043772;28;20098;-83
2022/08/15 06:25:28;;;;;;;3.60;1.52;;;21.50;99.90;;;;;;5057780;28;20033;-86
2022/08/15 06:28:20;;;;;;;5.97;2.10;;;21.70;99.90;;;;;;5041601;28;20063;-87
2022/08/15 06:31:00;;;;;;;3.00;1.77;;;21.90;99.90;;;;;;5011804;28;20127;-83
2022/08/15 06:33:43;;;;;;;3.55;1.85;;;22.10;99.90;;;;;;5050839;28;20052;-86
2022/08/15 06:36:46;;;;;;;3.17;1.00;;;22.20;99.90;;;;;;5069847;28;20029;-84
2022/08/15 06:39:24;;;;;;;3.75;1.48;;;22.00;99.90;;;;;;5027439;28;20040;-85
2022/08/15 06:42:13;;;;;;;3.20;0.93;;;21.80;99.90;;;;;;5047772;28;20044;-83
2022/08/15 06:44:54;;;;;;;2.03;1.00;;;21.80;99.90;;;;;;5047226;28;20400;-86
2022/08/15 06:47:22;;;;;;;4.13;1.77;;;21.80;99.90;;;;;;5066714;28;20504;-84
2022/08/15 06:49:54;;;;;;;3.35;1.67;;;21.70;99.90;;;;;;5066305;28;20029;-82
2022/08/15 06:52:21;;;;;;;2.50;1.05;;;21.70;99.90;;;;;;5047297;28;20024;-85
2022/08/15 06:54:47;;;;;;;2.80;1.13;;;21.70;99.90;;;;;;5048037;28;20135;-85
2022/08/15 06:58:00;;;;;;;3.08;1.23;;;21.80;99.90;;;;;;5045187;28;20396;-85
2022/08/15 07:00:33;;;;;;;4.32;1.00;;;21.80;99.90;;;;;;5063922;28;20063;-85
2022/08/15 07:03:05;;;;;;;4.47;1.42;;;21.90;99.90;;;;;;5060866;28;20047;-87
2022/08/15 07:05:51;;;;;;;7.20;1.35;;;21.90;99.90;;;;;;5050390;28;20472;-87
2022/08/15 07:08:29;;;;;;;3.78;1.33;;;21.90;99.90;;;;;;5069981;28;20538;-85
2022/08/15 07:11:09;;;;;;;1.77;0.65;;;22.00;99.90;;;;;;5065087;28;20082;-86
2022/08/15 07:14:06;;;;;;;3.60;0.98;;;22.10;99.90;;;;;;5051276;28;20021;-86
2022/08/15 07:16:59;;;;;;;2.72;1.17;;;22.20;99.90;;;;;;5049572;28;20021;-84
2022/08/15 07:19:26;;;;;;;2.22;0.80;;;22.20;99.90;;;;;;5064375;28;20039;-82
2022/08/15 07:22:02;;;;;;;2.40;0.82;;;22.30;99.90;;;;;;5064064;28;20021;-82
2022/08/15 07:24:31;;;;;;;2.53;0.88;;;22.40;99.90;;;;;;5048702;28;20055;-87
2022/08/15 07:27:03;;;;;;;3.78;0.93;;;22.50;99.90;;;;;;5048889;28;20055;-82
2022/08/15 07:29:35;;;;;;;4.30;0.88;;;22.50;99.90;;;;;;5063930;28;20655;-87
2022/08/15 07:32:20;;;;;;;1.77;0.63;;;22.50;99.90;;;;;;5029475;28;20052;-83
2022/08/15 07:35:16;;;;;;;5.85;1.40;;;22.70;99.90;;;;;;5063833;28;20035;-83
2022/08/15 07:37:50;;;;;;;4.40;1.00;;;22.80;99.90;;;;;;5042288;28;20027;-85
2022/08/15 07:40:25;;;;;;;2.42;0.90;;;22.90;99.90;;;;;;5044658;28;20130;-86
2022/08/15 07:42:52;;;;;;;2.83;0.85;;;22.90;99.90;;;;;;5049479;28;20031;-84
2022/08/15 07:45:37;;;;;;;3.25;0.88;;;23.00;99.90;;;;;;5065844;28;20228;-85
2022/08/15 07:48:11;;;;;;;1.60;0.80;;;23.00;99.90;;;;;;5046233;28;20025;-83
2022/08/15 07:50:41;;;;;;;1.75;0.52;;;23.20;99.90;;;;;;5060049;28;20025;-81
2022/08/15 07:53:23;;;;;;;1.88;0.70;;;23.40;99.90;;;;;;5059960;28;20401;-84
2022/08/15 07:56:05;;;;;;;4.07;0.70;;;23.50;99.90;;;;;;5060510;28;20544;-85
2022/08/15 07:58:34;;;;;;;4.80;1.27;;;23.60;99.90;;;;;;5065325;28;20025;-85
2022/08/15 08:01:08;;;;;;;2.60;0.90;;;23.40;99.90;;;;;;5057287;28;20274;-85
2022/08/15 08:03:35;;;;;;;2.13;0.70;;;23.50;99.90;;;;;;5045119;28;20070;-83
2022/08/15 08:06:08;;;;;;;2.92;0.70;;;23.60;99.90;;;;;;5059796;28;20536;-84
2022/08/15 08:08:46;;;;;;;1.55;0.60;;;23.60;99.90;;;;;;5049562;28;20401;-84
2022/08/15 08:11:44;;;;;;;1.70;0.80;;;23.80;99.90;;;;;;5037668;28;20396;-82
2022/08/15 08:14:37;;;;;;;3.60;1.08;;;23.90;99.90;;;;;;5045644;28;20032;-84
2022/08/15 08:17:15;;;;;;;1.20;0.60;;;23.90;99.90;;;;;;5054035;28;20481;-83
2022/08/15 08:20:08;;;;;;;1.13;0.40;;;24.00;99.90;;;;;;5064255;28;20027;-84
2022/08/15 08:23:01;;;;;;;2.05;0.70;;;24.00;99.90;;;;;;5061825;28;20036;-84
2022/08/15 08:25:52;;;;;;;2.33;0.63;;;24.00;99.90;;;;;;5054702;28;20304;-83
2022/08/15 08:28:42;;;;;;;3.75;1.13;;;23.90;99.90;;;;;;5042791;28;20048;-83
2022/08/15 08:31:32;;;;;;;4.20;1.77;;;23.80;99.90;;;;;;5036797;28;20135;-83
2022/08/15 08:34:10;;;;;;;2.67;1.23;;;23.80;99.90;;;;;;5050963;28;20032;-83
2022/08/15 08:37:08;;;;;;;2.20;1.00;;;23.90;99.90;;;;;;5052073;28;20028;-83
2022/08/15 08:41:24;;;;;;;2.57;0.90;;;24.00;99.90;;;;;;5054379;28;20029;-83
2022/08/15 08:43:07;;;;;;;4.32;0.80;;;24.00;99.90;;;;;;5053404;28;20382;-83
2022/08/15 08:46:23;;;;;;;1.80;1.05;;;24.20;99.90;;;;;;5053436;28;20033;-82
2022/08/15 08:49:02;;;;;;;2.15;1.02;;;24.20;99.90;;;;;;4998542;28;20228;-83
2022/08/15 08:51:36;;;;;;;2.35;0.88;;;24.30;99.90;;;;;;4985913;28;20021;-84
2022/08/15 08:54:44;;;;;;;3.08;0.70;;;24.50;99.90;;;;;;4997974;28;20116;-83
2022/08/15 08:57:15;;;;;;;2.83;0.90;;;24.60;99.90;;;;;;4943327;28;20065;-83
2022/08/15 09:00:15;;;;;;;2.60;1.00;;;24.60;99.90;;;;;;4984171;28;20229;-85
2022/08/15 09:02:56;;;;;;;3.58;1.17;;;24.40;99.90;;;;;;4979631;28;20144;-84
2022/08/15 09:05:42;;;;;;;1.70;0.68;;;24.40;99.90;;;;;;4968712;28;20025;-83
2022/08/15 09:08:18;;;;;;;1.80;0.60;;;24.50;99.90;;;;;;4975438;28;20603;-83
2022/08/15 09:10:48;;;;;;;4.47;0.90;;;24.50;99.90;;;;;;4999789;28;20061;-83
2022/08/15 09:13:34;;;;;;;1.92;0.75;;;24.40;99.90;;;;;;4981740;28;20038;-84
2022/08/15 09:16:26;;;;;;;5.55;2.00;;;24.50;99.90;;;;;;4968697;28;20037;-85
2022/08/15 09:19:20;;;;;;;2.85;1.50;;;23.90;99.90;;;;;;5010371;28;20037;-83
2022/08/15 09:21:47;;;;;;;5.10;1.42;;;23.90;99.90;;;;;;5062051;28;20021;-82
2022/08/15 09:24:15;;;;;;;2.83;1.23;;;23.80;99.90;;;;;;5044888;28;20174;-83
2022/08/15 09:27:04;;;;;;;2.42;1.20;;;23.80;99.90;;;;;;5042168;28;20020;-84
2022/08/15 09:29:33;;;;;;;3.08;1.50;;;23.60;99.90;;;;;;5029129;28;20037;-83
2022/08/15 09:32:17;;;;;;;3.67;1.40;;;23.60;99.90;;;;;;5059420;28;20480;-83
2022/08/15 09:35:07;;;;;;;2.30;0.63;;;23.60;99.90;;;;;;5041184;28;22504;-84
2022/08/15 09:37:35;;;;;;;5.65;0.85;;;23.80;99.90;;;;;;5064225;28;20029;-83
2022/08/15 09:40:12;;;;;;;4.05;1.30;;;23.90;99.90;;;;;;5037149;28;20037;-83
2022/08/15 09:43:00;;;;;;;2.58;1.50;;;23.80;99.90;;;;;;5053139;28;20392;-83
2022/08/15 09:45:33;;;;;;;2.58;0.95;;;23.90;99.90;;;;;;5043324;28;20040;-82
2022/08/15 09:48:07;;;;;;;2.50;0.90;;;24.10;99.90;;;;;;5058184;28;20073;-82
2022/08/15 09:50:48;;;;;;;4.38;1.08;;;24.20;99.90;;;;;;5033454;28;20162;-83
2022/08/15 09:53:36;;;;;;;2.85;0.93;;;24.20;99.90;;;;;;5054650;28;20112;-83
2022/08/15 09:56:05;;;;;;;4.00;0.80;;;24.40;99.90;;;;;;5051906;28;20119;-83
2022/08/15 09:58:37;;;;;;;4.10;1.40;;;24.30;99.90;;;;;;5057575;28;20099;-82
2022/08/15 10:01:30;;;;;;;2.80;1.13;;;24.30;99.90;;;;;;5053000;28;20040;-82
2022/08/15 10:04:07;;;;;;;3.42;1.67;;;24.20;99.90;;;;;;5042300;28;20528;-82
2022/08/15 10:06:47;;;;;;;2.92;0.90;;;24.20;99.90;;;;;;5053072;28;20461;-82
2022/08/15 10:09:30;;;;;;;2.22;0.95;;;24.30;99.90;;;;;;5056976;28;20120;-82
2022/08/15 10:12:06;;;;;;;2.50;0.70;;;24.30;99.90;;;;;;5055834;28;20040;-82
2022/08/15 10:15:02;;;;;;;2.53;0.90;;;24.40;99.90;;;;;;5040916;28;20385;-81
2022/08/15 10:17:37;;;;;;;1.95;0.90;;;24.50;99.90;;;;;;5050608;28;20029;-81
2022/08/15 10:20:15;;;;;;;2.33;0.90;;;24.60;99.90;;;;;;5056394;28;20036;-82
2022/08/15 10:22:59;;;;;;;2.03;0.88;;;24.70;99.90;;;;;;5055107;28;20033;-82
2022/08/15 10:25:28;;;;;;;1.50;0.75;;;24.70;99.90;;;;;;5048914;28;20029;-80
2022/08/15 10:27:59;;;;;;;4.25;1.00;;;24.70;99.90;;;;;;5036187;28;20386;-83
2022/08/15 10:30:30;;;;;;;4.10;1.00;;;24.80;99.90;;;;;;5037350;28;20210;-82
2022/08/15 10:32:58;;;;;;;2.35;1.10;;;24.80;99.90;;;;;;5034481;28;20121;-82
2022/08/15 10:35:28;;;;;;;1.75;1.00;;;25.00;99.90;;;;;;5059143;28;20378;-83
2022/08/15 10:38:00;;;;;;;1.77;0.80;;;25.20;99.90;;;;;;5050700;28;20036;-82
2022/08/15 10:40:45;;;;;;;2.00;0.88;;;25.30;99.90;;;;;;5058865;28;20068;-82
2022/08/15 10:43:39;;;;;;;1.55;0.82;;;25.50;99.90;;;;;;5059704;28;20396;-82
2022/08/15 10:46:23;;;;;;;3.05;1.10;;;25.70;99.90;;;;;;5048580;28;22131;-83
2022/08/15 10:49:33;;;;;;;1.70;1.02;;;26.00;99.90;;;;;;5058529;28;20089;-81
2022/08/15 10:52:19;;;;;;;2.90;0.90;;;26.20;99.90;;;;;;4966290;28;20113;-83
2022/08/15 10:55:02;;;;;;;3.53;1.23;;;26.40;99.90;;;;;;4984243;28;20042;-82
2022/08/15 10:57:38;;;;;;;5.05;3.00;;;26.40;99.90;;;;;;4984355;28;20103;-83
2022/08/15 11:00:06;;;;;;;7.72;3.10;;;25.90;99.90;;;;;;4984178;28;20038;-82
2022/08/15 11:02:32;;;;;;;5.90;3.40;;;25.70;99.90;;;;;;4982360;28;20038;-81
2022/08/15 11:05:08;;;;;;;3.97;1.92;;;25.80;99.90;;;;;;4955541;28;20136;-81
2022/08/15 11:07:36;;;;;;;4.43;2.00;;;26.30;99.90;;;;;;4983593;28;20046;-81
2022/08/15 11:10:14;;;;;;;4.68;2.45;;;26.60;99.90;;;;;;4967739;28;20029;-83
2022/08/15 11:12:50;;;;;;;6.68;2.70;;;26.20;99.90;;;;;;5001342;28;20030;-81
2022/08/15 11:15:30;;;;;;;4.50;2.30;;;25.90;99.90;;;;;;4986292;28;20113;-82
2022/08/15 11:18:04;;;;;;;3.47;2.28;;;26.10;99.90;;;;;;5001837;28;20030;-82
2022/08/15 11:20:42;;;;;;;4.82;2.15;;;26.00;99.90;;;;;;5002621;28;20038;-82
2022/08/15 11:23:09;;;;;;;6.55;3.13;;;25.70;99.90;;;;;;4985966;28;20050;-81
2022/08/15 11:25:39;;;;;;;3.90;2.53;;;25.50;99.90;;;;;;5013125;28;20059;-82
2022/08/15 11:28:12;;;;;;;3.25;1.95;;;25.50;99.90;;;;;;5038897;28;20028;-83
2022/08/15 11:30:41;;;;;;;4.63;2.47;;;25.70;99.90;;;;;;5056207;28;20036;-81
2022/08/15 11:33:27;;;;;;;4.43;2.78;;;25.90;99.90;;;;;;5057044;28;20048;-82
2022/08/15 11:36:17;;;;;;;5.22;2.88;;;25.70;99.90;;;;;;5053936;28;20279;-83
2022/08/15 11:39:11;;;;;;;5.80;1.67;;;25.50;99.90;;;;;;5055029;28;20033;-83
2022/08/15 11:41:41;;;;;;;8.40;2.92;;;25.90;99.90;;;;;;5050320;28;20170;-82
2022/08/15 11:44:10;;;;;;;4.07;1.60;;;25.50;99.90;;;;;;5056213;28;20062;-82
2022/08/15 11:46:37;;;;;;;4.57;1.97;;;26.10;99.90;;;;;;5057279;28;20029;-81
2022/08/15 11:49:19;;;;;;;2.42;1.38;;;26.40;99.90;;;;;;5056138;28;20288;-80
2022/08/15 11:51:46;;;;;;;4.30;1.85;;;26.30;99.90;;;;;;5055727;28;20021;-81
2022/08/15 11:54:12;;;;;;;3.55;2.50;;;26.40;99.90;;;;;;5053725;28;20404;-81
2022/08/15 11:57:05;;;;;;;4.82;2.05;;;25.70;99.90;;;;;;5060299;28;20040;-83
2022/08/15 11:59:37;;;;;;;6.32;3.50;;;25.60;99.90;;;;;;5052640;28;20052;-83
2022/08/15 12:02:18;;;;;;;5.73;3.20;;;25.10;99.90;;;;;;5059026;28;20025;-83
2022/08/15 12:04:46;;;;;;;5.30;2.88;;;25.10;99.90;;;;;;5059764;28;20070;-82
2022/08/15 12:07:27;;;;;;;3.20;2.17;;;25.40;99.90;;;;;;5055923;28;20024;-83
2022/08/15 12:10:04;;;;;;;5.05;2.10;;;25.90;99.90;;;;;;5059935;28;20116;-82
2022/08/15 12:12:49;;;;;;;3.65;1.88;;;26.30;99.90;;;;;;5045671;28;20393;-83
2022/08/15 12:15:16;;;;;;;4.97;2.22;;;26.30;99.90;;;;;;5053177;28;20090;-83
2022/08/15 12:18:27;;;;;;;3.63;1.80;;;26.50;99.90;;;;;;5055780;28;20044;-84
2022/08/15 12:20:59;;;;;;;3.30;2.30;;;26.50;99.90;;;;;;5057166;28;20090;-82
2022/08/15 12:23:30;;;;;;;4.68;2.35;;;26.00;99.90;;;;;;5051612;28;20041;-82
2022/08/15 12:26:10;;;;;;;6.10;3.95;;;26.00;99.90;;;;;;5057035;28;20024;-82
2022/08/15 12:28:38;;;;;;;4.50;2.13;;;25.80;99.90;;;;;;5054043;28;20051;-82
2022/08/15 12:31:34;;;;;;;3.33;2.08;;;26.80;99.90;;;;;;5059008;28;20390;-83
2022/08/15 12:34:13;;;;;;;3.72;2.08;;;27.20;99.90;;;;;;5052748;28;20029;-82
2022/08/15 12:36:42;;;;;;;2.70;1.40;;;27.10;99.90;;;;;;5039540;28;20033;-82
2022/08/15 12:39:10;;;;;;;6.72;3.28;;;27.00;99.90;;;;;;5039071;28;20451;-82
2022/08/15 12:41:36;;;;;;;5.57;3.25;;;26.10;99.90;;;;;;5053703;28;20123;-82
2022/08/15 12:44:06;;;;;;;3.30;2.30;;;26.30;99.90;;;;;;5060232;28;20040;-83
2022/08/15 12:46:33;;;;;;;5.50;1.63;;;26.90;99.90;;;;;;5054010;28;20034;-82
2022/08/15 12:48:59;;;;;;;3.20;1.27;;;27.20;99.90;;;;;;5060544;28;20028;-82
2022/08/15 12:51:26;;;;;;;4.85;2.40;;;27.30;99.90;;;;;;5054825;28;20025;-82
2022/08/15 12:53:53;;;;;;;4.43;2.45;;;26.70;99.90;;;;;;5056158;28;20561;-83
2022/08/15 12:56:19;;;;;;;3.40;2.20;;;27.10;99.90;;;;;;5058516;28;20028;-85
2022/08/15 12:58:45;;;;;;;4.55;2.60;;;27.30;99.90;;;;;;5058788;28;20032;-82
2022/08/15 13:01:12;;;;;;;6.22;3.97;;;26.80;99.90;;;;;;5043500;28;20029;-83
2022/08/15 13:03:43;;;;;;;6.50;3.70;;;26.10;99.90;;;;;;5044582;28;20036;-83
2022/08/15 13:06:26;;;;;;;7.40;3.08;;;26.10;99.90;;;;;;5051647;28;20040;-82
2022/08/15 13:08:52;;;;;;;4.57;2.85;;;26.20;99.90;;;;;;5054672;28;20033;-82
2022/08/15 13:11:18;;;;;;;5.03;2.40;;;26.30;99.90;;;;;;5048163;28;20056;-82
2022/08/15 13:13:44;;;;;;;4.85;2.20;;;26.90;99.90;;;;;;5041575;28;20032;-81
2022/08/15 13:16:10;;;;;;;4.97;2.40;;;27.40;99.90;;;;;;5053745;28;20029;-81
2022/08/15 13:18:37;;;;;;;4.22;1.90;;;27.50;99.90;;;;;;5058471;28;20477;-83
2022/08/15 13:23:52;;;;;;;4.35;1.83;;;27.80;99.90;;;;;;5052285;28;20123;-82
2022/08/15 13:26:20;;;;;;;3.40;1.13;;;27.80;99.90;;;;;;5038427;28;20146;-83
2022/08/15 13:28:48;;;;;;;2.90;1.80;;;28.40;99.90;;;;;;5059299;28;20854;-83
2022/08/15 13:31:16;;;;;;;4.00;1.60;;;28.80;99.90;;;;;;5054055;28;20541;-83